createdAt,value
2019-01-08T00:02:11.047Z,1.20
2019-01-08T00:04:40.751Z,1.30
2019-01-08T00:07:10.501Z,1.20
2019-01-08T00:09:40.078Z,1.20
2019-01-08T00:12:09.827Z,1.30
2019-01-08T00:14:39.516Z,1.30
2019-01-08T00:17:09.083Z,1.30
2019-01-08T00:19:38.732Z,1.30
2019-01-08T00:22:08.348Z,1.40
2019-01-08T00:24:37.993Z,1.40
2019-01-08T00:27:07.713Z,1.40
2019-01-08T00:29:40.468Z,1.40
2019-01-08T00:32:10.070Z,1.40
2019-01-08T00:34:39.810Z,1.50
2019-01-08T00:37:09.491Z,1.50
2019-01-08T00:39:39.221Z,1.50
2019-01-08T00:42:08.998Z,1.40
2019-01-08T00:44:38.558Z,1.40
2019-01-08T00:47:08.263Z,1.50
2019-01-08T00:49:37.963Z,1.40
2019-01-08T00:52:07.733Z,1.40
2019-01-08T00:54:37.409Z,1.30
2019-01-08T00:57:07.007Z,1.30
2019-01-08T00:59:36.698Z,1.30
2019-01-08T01:02:06.372Z,1.20
2019-01-08T01:04:35.963Z,1.10
2019-01-08T01:07:05.549Z,1.20
2019-01-08T01:09:35.329Z,1.20
2019-01-08T01:12:04.928Z,1.20
2019-01-08T01:14:34.574Z,1.20
2019-01-08T01:17:04.341Z,1.20
2019-01-08T01:19:33.915Z,1.20
2019-01-08T01:22:03.531Z,1.20
2019-01-08T01:24:33.243Z,1.20
2019-01-08T01:27:02.972Z,1.20
2019-01-08T01:29:32.713Z,1.10
2019-01-08T01:32:02.290Z,1.20
2019-01-08T01:34:31.922Z,1.20
2019-01-08T01:37:01.688Z,1.10
2019-01-08T01:39:31.355Z,1.10
2019-01-08T01:42:01.144Z,1.10
2019-01-08T01:44:30.793Z,1.10
2019-01-08T01:47:00.403Z,1.10
2019-01-08T01:49:30.030Z,1.00
2019-01-08T01:51:59.643Z,1.00
2019-01-08T01:54:29.356Z,1.00
2019-01-08T01:56:59.042Z,1.00
2019-01-08T01:59:28.778Z,1.00
2019-01-08T02:01:58.435Z,1.00
2019-01-08T02:04:28.217Z,1.00
2019-01-08T02:06:57.955Z,1.00
2019-01-08T02:09:27.566Z,1.10
2019-01-08T02:11:57.325Z,1.00
2019-01-08T02:14:27.067Z,1.00
2019-01-08T02:16:56.821Z,1.00
2019-01-08T02:19:26.587Z,1.10
2019-01-08T02:21:56.364Z,1.00
2019-01-08T02:24:26.085Z,1.10
2019-01-08T02:26:55.787Z,1.10
2019-01-08T02:29:25.430Z,1.10
2019-01-08T02:31:55.070Z,1.10
2019-01-08T02:34:24.776Z,1.10
2019-01-08T02:36:54.512Z,1.10
2019-01-08T02:39:24.114Z,1.10
2019-01-08T02:41:53.795Z,1.20
2019-01-08T02:44:23.656Z,1.20
2019-01-08T02:46:53.332Z,1.20
2019-01-08T02:49:23.103Z,1.30
2019-01-08T02:51:52.850Z,1.20
2019-01-08T02:54:22.571Z,1.20
2019-01-08T02:56:52.227Z,1.30
2019-01-08T02:59:25.148Z,1.30
2019-01-08T03:01:53.278Z,1.30
2019-01-08T03:04:23.056Z,1.30
2019-01-08T03:06:52.687Z,1.40
2019-01-08T03:09:22.378Z,1.40
2019-01-08T03:11:51.962Z,1.30
2019-01-08T03:14:21.687Z,1.30
2019-01-08T03:16:51.274Z,1.30
2019-01-08T03:19:20.946Z,1.30
2019-01-08T03:21:50.663Z,1.30
2019-01-08T03:24:20.402Z,1.30
2019-01-08T03:26:50.187Z,1.40
2019-01-08T03:29:19.899Z,1.30
2019-01-08T03:31:49.565Z,1.30
2019-01-08T03:34:19.196Z,1.30
2019-01-08T03:36:48.838Z,1.30
2019-01-08T03:39:18.351Z,1.30
2019-01-08T03:41:48.098Z,1.30
2019-01-08T03:44:17.832Z,1.30
2019-01-08T03:46:47.588Z,1.30
2019-01-08T03:49:17.335Z,1.30
2019-01-08T03:51:46.937Z,1.20
2019-01-08T03:54:16.595Z,1.20
2019-01-08T03:56:46.258Z,1.20
2019-01-08T03:59:16.013Z,1.20
2019-01-08T04:01:45.646Z,1.20
2019-01-08T04:04:15.318Z,1.20
2019-01-08T04:06:45.078Z,1.10
2019-01-08T04:09:14.781Z,1.10
2019-01-08T04:11:44.390Z,1.10
2019-01-08T04:14:14.011Z,1.00
2019-01-08T04:16:43.737Z,1.00
2019-01-08T04:19:16.299Z,1.00
2019-01-08T04:21:46.072Z,1.00
2019-01-08T04:24:15.729Z,1.00
2019-01-08T04:26:45.422Z,1.00
2019-01-08T04:29:15.060Z,1.00
2019-01-08T04:31:44.826Z,1.00
2019-01-08T04:34:14.531Z,1.00
2019-01-08T04:36:44.251Z,1.00
2019-01-08T04:39:13.852Z,1.00
2019-01-08T04:41:43.562Z,1.00
2019-01-08T04:44:13.357Z,1.00
2019-01-08T04:46:43.120Z,1.10
2019-01-08T04:49:12.877Z,1.10
2019-01-08T04:51:42.954Z,1.10
2019-01-08T04:54:12.694Z,1.10
2019-01-08T04:56:42.509Z,1.10
2019-01-08T04:59:12.293Z,1.10
2019-01-08T05:01:41.928Z,1.10
2019-01-08T05:04:11.596Z,1.10
2019-01-08T05:06:41.249Z,1.10
2019-01-08T05:09:10.875Z,1.10
2019-01-08T05:11:40.582Z,1.10
2019-01-08T05:14:10.304Z,1.10
2019-01-08T05:16:39.987Z,1.10
2019-01-08T05:19:09.695Z,1.10
2019-01-08T05:21:39.439Z,1.10
2019-01-08T05:24:09.048Z,1.10
2019-01-08T05:26:38.702Z,1.00
2019-01-08T05:29:08.422Z,1.00
2019-01-08T05:31:38.189Z,1.00
2019-01-08T05:34:07.826Z,1.00
2019-01-08T05:36:37.554Z,1.00
2019-01-08T05:39:07.480Z,1.00
2019-01-08T05:41:37.203Z,1.00
2019-01-08T05:44:06.946Z,1.00
2019-01-08T05:46:36.580Z,1.10
2019-01-08T05:49:06.356Z,1.10
2019-01-08T05:51:35.971Z,1.10
2019-01-08T05:54:05.824Z,1.10
2019-01-08T05:56:35.490Z,1.20
2019-01-08T05:59:05.153Z,1.10
2019-01-08T06:01:34.953Z,1.20
2019-01-08T06:04:04.765Z,1.20
2019-01-08T06:06:34.374Z,1.30
2019-01-08T06:09:05.222Z,1.30
2019-01-08T06:11:34.932Z,1.30
2019-01-08T06:14:04.750Z,1.30
2019-01-08T06:16:34.562Z,1.40
2019-01-08T06:19:04.223Z,1.40
2019-01-08T06:21:33.939Z,1.30
2019-01-08T06:24:03.618Z,1.30
2019-01-08T06:26:33.456Z,1.30
2019-01-08T06:29:03.134Z,1.30
2019-01-08T06:31:32.754Z,1.30
2019-01-08T06:34:02.497Z,1.30
2019-01-08T06:36:32.162Z,1.40
2019-01-08T06:39:01.953Z,1.30
2019-01-08T06:41:31.702Z,1.30
2019-01-08T06:44:01.366Z,1.40
2019-01-08T06:46:31.098Z,1.30
2019-01-08T06:49:00.833Z,1.30
2019-01-08T06:51:30.574Z,1.30
2019-01-08T06:54:00.983Z,1.30
2019-01-08T06:56:30.715Z,1.30
2019-01-08T06:59:04.715Z,1.30
2019-01-08T07:01:34.483Z,1.40
2019-01-08T07:04:04.196Z,1.30
2019-01-08T07:06:33.954Z,1.30
2019-01-08T07:09:04.449Z,1.30
2019-01-08T07:11:34.025Z,1.30
2019-01-08T07:14:03.837Z,1.30
2019-01-08T07:16:33.553Z,1.60
2019-01-08T07:19:03.283Z,1.70
2019-01-08T07:21:33.034Z,1.90
2019-01-08T07:24:02.805Z,2.10
2019-01-08T07:26:32.510Z,2.00
2019-01-08T07:29:02.290Z,1.90
2019-01-08T07:31:31.949Z,1.70
2019-01-08T07:34:01.621Z,1.60
2019-01-08T07:36:31.351Z,1.50
2019-01-08T07:39:01.064Z,1.50
2019-01-08T07:41:30.819Z,1.50
2019-01-08T07:44:00.662Z,1.50
2019-01-08T07:46:30.428Z,1.50
2019-01-08T07:49:00.114Z,1.70
2019-01-08T07:51:29.826Z,1.80
2019-01-08T07:53:59.522Z,1.70
2019-01-08T07:56:29.186Z,1.70
2019-01-08T07:58:58.832Z,1.70
2019-01-08T08:01:28.444Z,1.60
2019-01-08T08:03:58.246Z,1.50
2019-01-08T08:06:28.010Z,1.60
2019-01-08T08:08:57.728Z,1.70
2019-01-08T08:11:27.496Z,1.60
2019-01-08T08:13:57.278Z,1.70
2019-01-08T08:16:26.982Z,1.80
2019-01-08T08:18:56.602Z,1.80
2019-01-08T08:21:26.317Z,1.90
2019-01-08T08:23:56.013Z,1.90
2019-01-08T08:26:25.772Z,1.80
2019-01-08T08:28:55.544Z,1.90
2019-01-08T08:31:25.172Z,1.90
2019-01-08T08:33:54.897Z,1.90
2019-01-08T08:36:24.551Z,1.90
2019-01-08T08:38:54.182Z,1.90
2019-01-08T08:41:23.795Z,2.00
2019-01-08T08:43:53.486Z,1.90
2019-01-08T08:46:23.325Z,2.00
2019-01-08T08:48:53.543Z,2.00
2019-01-08T08:51:23.264Z,2.00
2019-01-08T08:53:52.989Z,2.10
2019-01-08T08:56:22.700Z,2.10
2019-01-08T08:58:52.293Z,2.00
2019-01-08T09:01:22.461Z,2.00
2019-01-08T09:03:52.090Z,2.00
2019-01-08T09:06:21.742Z,2.10
2019-01-08T09:08:51.587Z,2.30
2019-01-08T09:11:21.183Z,2.40
2019-01-08T09:13:51.129Z,2.40
2019-01-08T09:16:20.846Z,2.50
2019-01-08T09:18:50.585Z,2.40
2019-01-08T09:21:20.313Z,2.30
2019-01-08T09:23:49.887Z,2.30
2019-01-08T09:26:19.433Z,2.30
2019-01-08T09:28:49.460Z,2.20
2019-01-08T09:31:19.444Z,2.20
2019-01-08T09:33:49.204Z,2.20
2019-01-08T09:36:18.949Z,2.10
2019-01-08T09:38:48.639Z,2.10
2019-01-08T09:41:18.384Z,2.10
2019-01-08T09:43:48.034Z,2.10
2019-01-08T09:46:17.631Z,2.20
2019-01-08T09:48:47.374Z,2.20
2019-01-08T09:51:17.101Z,2.10
2019-01-08T09:53:46.893Z,2.10
2019-01-08T09:56:16.580Z,2.10
2019-01-08T09:58:46.171Z,2.20
2019-01-08T10:01:23.598Z,2.20
2019-01-08T10:03:47.175Z,2.20
2019-01-08T10:06:16.922Z,2.20
2019-01-08T10:08:46.783Z,2.20
2019-01-08T10:11:16.521Z,2.20
2019-01-08T10:13:46.167Z,2.30
2019-01-08T10:16:15.995Z,2.30
2019-01-08T10:18:45.759Z,2.40
2019-01-08T10:21:15.456Z,2.40
2019-01-08T10:23:45.192Z,2.60
2019-01-08T10:26:14.786Z,2.70
2019-01-08T10:28:44.535Z,2.80
2019-01-08T10:31:14.311Z,3.10
2019-01-08T10:33:44.028Z,3.30
2019-01-08T10:36:13.677Z,3.40
2019-01-08T10:38:44.628Z,3.40
2019-01-08T10:41:14.315Z,3.40
2019-01-08T10:43:43.934Z,3.60
2019-01-08T10:46:13.530Z,3.70
2019-01-08T10:48:43.160Z,3.70
2019-01-08T10:51:12.769Z,3.50
2019-01-08T10:53:42.486Z,3.30
2019-01-08T10:56:13.106Z,3.20
2019-01-08T10:58:42.825Z,3.30
2019-01-08T11:01:12.578Z,3.20
2019-01-08T11:03:42.204Z,3.30
2019-01-08T11:06:11.946Z,3.20
2019-01-08T11:08:41.599Z,3.10
2019-01-08T11:11:11.194Z,3.10
2019-01-08T11:13:40.914Z,3.10
2019-01-08T11:16:10.672Z,3.20
2019-01-08T11:18:40.261Z,3.30
2019-01-08T11:21:10.012Z,3.30
2019-01-08T11:23:39.736Z,3.30
2019-01-08T11:26:09.374Z,3.20
2019-01-08T11:28:38.885Z,3.10
2019-01-08T11:31:08.512Z,3.20
2019-01-08T11:33:38.178Z,3.10
2019-01-08T11:36:07.865Z,3.30
2019-01-08T11:38:37.625Z,3.40
2019-01-08T11:41:07.274Z,3.50
2019-01-08T11:43:36.900Z,3.70
2019-01-08T11:46:06.643Z,3.70
2019-01-08T11:48:36.601Z,3.50
2019-01-08T11:51:06.276Z,3.80
2019-01-08T11:53:36.790Z,3.90
2019-01-08T11:56:06.796Z,4.00
2019-01-08T11:58:36.944Z,3.80
2019-01-08T12:01:06.840Z,4.20
2019-01-08T12:03:37.089Z,4.50
2019-01-08T12:06:07.265Z,5.00
2019-01-08T12:08:37.520Z,5.30
2019-01-08T12:11:07.721Z,5.80
2019-01-08T12:13:37.567Z,6.00
2019-01-08T12:16:07.331Z,6.00
2019-01-08T12:18:37.658Z,6.00
2019-01-08T12:21:07.433Z,6.50
2019-01-08T12:23:37.302Z,6.50
2019-01-08T12:26:07.417Z,7.10
2019-01-08T12:28:37.328Z,6.80
2019-01-08T12:31:07.237Z,6.30
2019-01-08T12:33:36.884Z,5.80
2019-01-08T12:36:06.552Z,5.40
2019-01-08T12:38:44.786Z,5.10
2019-01-08T12:41:14.510Z,4.80
2019-01-08T12:43:44.375Z,4.70
2019-01-08T12:46:14.494Z,4.50
2019-01-08T12:48:44.290Z,4.50
2019-01-08T12:51:14.054Z,4.40
2019-01-08T12:53:43.773Z,4.30
2019-01-08T12:56:13.473Z,4.20
2019-01-08T12:59:08.408Z,4.10
2019-01-08T13:01:38.161Z,3.90
2019-01-08T13:04:07.745Z,3.90
2019-01-08T13:06:37.454Z,3.90
2019-01-08T13:09:09.086Z,3.90
2019-01-08T13:11:38.699Z,3.80
2019-01-08T13:14:08.450Z,3.80
2019-01-08T13:16:38.560Z,3.80
2019-01-08T13:19:08.367Z,3.80
2019-01-08T13:21:41.082Z,3.80
2019-01-08T13:24:10.743Z,3.70
2019-01-08T13:26:40.505Z,3.70
2019-01-08T13:29:10.214Z,3.70
2019-01-08T13:31:39.961Z,3.70
2019-01-08T13:34:12.892Z,3.60
2019-01-08T13:36:42.625Z,3.50
2019-01-08T13:39:12.348Z,3.50
2019-01-08T13:41:42.000Z,3.50
2019-01-08T13:44:11.816Z,3.50
2019-01-08T13:46:41.536Z,3.50
2019-01-08T13:49:11.095Z,3.50
2019-01-08T13:51:40.811Z,3.50
2019-01-08T13:54:10.472Z,3.50
2019-01-08T13:56:40.175Z,3.40
2019-01-08T13:59:09.914Z,3.40
2019-01-08T14:01:39.567Z,3.30
2019-01-08T14:04:09.218Z,3.30
2019-01-08T14:06:38.913Z,3.30
2019-01-08T14:09:09.184Z,3.40
2019-01-08T14:11:38.897Z,3.30
2019-01-08T14:14:08.492Z,3.30
2019-01-08T14:16:38.219Z,3.30
2019-01-08T14:19:07.910Z,3.30
2019-01-08T14:21:37.624Z,3.30
2019-01-08T14:24:07.399Z,3.30
2019-01-08T14:26:36.990Z,3.20
2019-01-08T14:29:06.605Z,3.20
2019-01-08T14:31:36.291Z,3.10
2019-01-08T14:34:05.995Z,3.10
2019-01-08T14:36:35.764Z,3.10
2019-01-08T14:39:06.770Z,3.10
2019-01-08T14:41:36.529Z,3.00
2019-01-08T14:44:06.255Z,3.10
2019-01-08T14:46:36.005Z,3.00
2019-01-08T14:49:05.673Z,3.10
2019-01-08T14:51:35.391Z,3.20
2019-01-08T14:54:05.190Z,3.20
2019-01-08T14:56:34.970Z,3.20
2019-01-08T14:59:04.632Z,3.10
2019-01-08T15:01:34.336Z,3.10
2019-01-08T15:04:04.026Z,3.00
2019-01-08T15:06:33.636Z,2.90
2019-01-08T15:09:04.404Z,3.00
2019-01-08T15:11:33.982Z,3.00
2019-01-08T15:14:03.685Z,3.00
2019-01-08T15:16:33.460Z,3.00
2019-01-08T15:19:03.203Z,3.00
2019-01-08T15:21:32.869Z,3.00
2019-01-08T15:24:02.470Z,3.00
2019-01-08T15:26:32.093Z,3.00
2019-01-08T15:29:01.716Z,3.00
2019-01-08T15:31:31.483Z,3.00
2019-01-08T15:34:01.243Z,2.90
2019-01-08T15:36:30.932Z,2.90
2019-01-08T15:39:00.556Z,2.90
2019-01-08T15:41:30.198Z,2.90
2019-01-08T15:43:59.945Z,2.90
2019-01-08T15:46:29.528Z,2.90
2019-01-08T15:48:59.296Z,2.90
2019-01-08T15:51:28.928Z,2.90
2019-01-08T15:53:58.544Z,2.90
2019-01-08T15:56:28.161Z,2.90
2019-01-08T15:58:57.705Z,2.90
2019-01-08T16:01:27.364Z,2.90
2019-01-08T16:03:57.084Z,2.90
2019-01-08T16:06:26.720Z,2.80
2019-01-08T16:08:56.432Z,2.80
2019-01-08T16:11:26.083Z,2.80
2019-01-08T16:13:55.717Z,2.80
2019-01-08T16:16:25.460Z,2.80
2019-01-08T16:18:55.308Z,2.70
2019-01-08T16:21:24.939Z,2.70
2019-01-08T16:23:54.571Z,2.70
2019-01-08T16:26:24.172Z,2.70
2019-01-08T16:28:53.807Z,2.60
2019-01-08T16:31:23.537Z,2.60
2019-01-08T16:33:53.162Z,2.60
2019-01-08T16:36:22.957Z,2.60
2019-01-08T16:38:52.585Z,2.50
2019-01-08T16:41:22.202Z,2.50
2019-01-08T16:43:52.003Z,2.50
2019-01-08T16:46:21.666Z,2.50
2019-01-08T16:48:51.591Z,2.50
2019-01-08T16:51:21.300Z,2.40
2019-01-08T16:53:51.088Z,2.40
2019-01-08T16:56:20.754Z,2.40
2019-01-08T16:58:50.521Z,2.40
2019-01-08T17:01:20.233Z,2.40
2019-01-08T17:03:49.926Z,2.40
2019-01-08T17:06:19.666Z,2.40
2019-01-08T17:08:49.480Z,2.30
2019-01-08T17:11:19.263Z,2.30
2019-01-08T17:13:48.902Z,2.30
2019-01-08T17:16:18.627Z,2.40
2019-01-08T17:18:48.393Z,2.30
2019-01-08T17:21:18.117Z,2.30
2019-01-08T17:23:47.714Z,2.30
2019-01-08T17:26:17.472Z,2.30
2019-01-08T17:28:47.106Z,2.30
2019-01-08T17:31:16.813Z,2.30
2019-01-08T17:33:46.439Z,2.30
2019-01-08T17:36:16.086Z,2.20
2019-01-08T17:38:45.789Z,2.20
2019-01-08T17:41:15.481Z,2.20
2019-01-08T17:43:45.129Z,2.10
2019-01-08T17:46:14.747Z,2.20
2019-01-08T17:48:44.376Z,2.20
2019-01-08T17:51:14.140Z,2.20
2019-01-08T17:53:43.863Z,2.10
2019-01-08T17:56:13.547Z,2.10
2019-01-08T17:58:47.687Z,2.10
2019-01-08T18:01:26.606Z,2.00
2019-01-08T18:03:56.259Z,2.00
2019-01-08T18:06:25.887Z,2.00
2019-01-08T18:08:55.638Z,2.00
2019-01-08T18:11:25.376Z,2.00
2019-01-08T18:13:55.088Z,1.90
2019-01-08T18:16:24.805Z,1.90
2019-01-08T18:18:54.516Z,1.90
2019-01-08T18:21:24.408Z,1.90
2019-01-08T18:23:54.158Z,1.90
2019-01-08T18:26:23.920Z,1.80
2019-01-08T18:28:53.587Z,1.90
2019-01-08T18:31:23.256Z,1.90
2019-01-08T18:33:52.940Z,1.90
2019-01-08T18:36:22.516Z,1.90
2019-01-08T18:38:52.343Z,1.90
2019-01-08T18:41:22.051Z,1.90
2019-01-08T18:43:51.683Z,1.90
2019-01-08T18:46:21.477Z,2.00
2019-01-08T18:48:51.129Z,2.00
2019-01-08T18:51:20.793Z,2.00
2019-01-08T18:53:50.436Z,2.10
2019-01-08T18:56:20.174Z,2.10
2019-01-08T18:58:49.875Z,2.20
2019-01-08T19:01:19.637Z,2.20
2019-01-08T19:03:49.281Z,2.20
2019-01-08T19:06:18.928Z,2.10
2019-01-08T19:09:25.944Z,2.10
2019-01-08T19:11:56.049Z,2.10
2019-01-08T19:14:31.782Z,2.10
2019-01-08T19:17:01.489Z,2.10
2019-01-08T19:19:31.403Z,2.10
2019-01-08T19:22:01.121Z,2.10
2019-01-08T19:24:30.921Z,2.10
2019-01-08T19:27:00.715Z,2.10
2019-01-08T19:29:30.461Z,2.10
2019-01-08T19:32:00.093Z,2.10
2019-01-08T19:34:29.815Z,2.10
2019-01-08T19:36:59.512Z,2.10
2019-01-08T19:39:29.286Z,2.10
2019-01-08T19:41:58.983Z,2.10
2019-01-08T19:44:28.705Z,2.10
2019-01-08T19:46:58.517Z,2.10
2019-01-08T19:49:28.128Z,2.10
2019-01-08T19:51:57.843Z,2.20
2019-01-08T19:54:27.545Z,2.20
2019-01-08T19:56:57.424Z,2.20
2019-01-08T19:59:27.073Z,2.30
2019-01-08T20:02:01.074Z,2.30
2019-01-08T20:04:30.754Z,2.30
2019-01-08T20:07:00.748Z,2.20
2019-01-08T20:09:30.450Z,2.20
2019-01-08T20:12:00.132Z,2.20
2019-01-08T20:14:31.258Z,2.20
2019-01-08T20:17:00.974Z,2.20
2019-01-08T20:19:30.681Z,2.20
2019-01-08T20:22:00.259Z,2.20
2019-01-08T20:24:29.979Z,2.20
2019-01-08T20:26:59.595Z,2.20
2019-01-08T20:29:29.308Z,2.10
2019-01-08T20:31:58.950Z,2.20
2019-01-08T20:34:28.688Z,2.20
2019-01-08T20:36:58.392Z,2.20
2019-01-08T20:39:28.039Z,2.20
2019-01-08T20:41:57.735Z,2.20
2019-01-08T20:44:27.488Z,2.30
2019-01-08T20:46:57.150Z,2.20
2019-01-08T20:49:26.828Z,2.20
2019-01-08T20:51:56.449Z,2.10
2019-01-08T20:54:26.061Z,2.10
2019-01-08T20:56:55.872Z,2.20
2019-01-08T20:59:25.720Z,2.10
2019-01-08T21:01:55.435Z,2.10
2019-01-08T21:04:25.331Z,2.10
2019-01-08T21:06:55.124Z,2.10
2019-01-08T21:09:24.834Z,2.10
2019-01-08T21:11:54.510Z,2.10
2019-01-08T21:14:24.088Z,2.00
2019-01-08T21:16:53.888Z,2.10
2019-01-08T21:19:23.527Z,2.10
2019-01-08T21:21:53.187Z,2.10
2019-01-08T21:24:28.381Z,2.10
2019-01-08T21:26:54.251Z,2.10
2019-01-08T21:29:24.083Z,2.10
2019-01-08T21:31:53.686Z,2.10
2019-01-08T21:34:23.338Z,2.10
2019-01-08T21:36:53.085Z,2.20
2019-01-08T21:39:22.824Z,2.10
2019-01-08T21:41:52.610Z,2.10
2019-01-08T21:44:22.256Z,2.10
2019-01-08T21:46:52.337Z,2.20
2019-01-08T21:49:22.078Z,2.20
2019-01-08T21:51:51.717Z,2.10
2019-01-08T21:54:21.613Z,2.10
2019-01-08T21:56:51.418Z,2.00
2019-01-08T21:59:21.166Z,2.00
2019-01-08T22:01:50.920Z,2.00
2019-01-08T22:04:20.649Z,2.00
2019-01-08T22:06:50.440Z,2.00
2019-01-08T22:09:20.113Z,2.00
2019-01-08T22:11:50.460Z,2.00
2019-01-08T22:14:20.321Z,2.00
2019-01-08T22:16:50.132Z,1.90
2019-01-08T22:19:19.885Z,1.90
2019-01-08T22:21:50.098Z,2.10
2019-01-08T22:24:19.830Z,2.30
2019-01-08T22:26:49.444Z,2.40
2019-01-08T22:29:19.241Z,2.20
2019-01-08T22:31:49.171Z,2.10
2019-01-08T22:34:19.974Z,2.00
2019-01-08T22:36:49.660Z,1.90
2019-01-08T22:39:19.261Z,1.90
2019-01-08T22:41:48.984Z,1.80
2019-01-08T22:44:18.599Z,1.80
2019-01-08T22:46:48.375Z,1.80
2019-01-08T22:49:18.219Z,1.70
2019-01-08T22:51:47.818Z,1.70
2019-01-08T22:54:17.554Z,1.60
2019-01-08T22:56:47.195Z,1.70
2019-01-08T22:59:16.966Z,1.60
2019-01-08T23:01:48.805Z,1.60
2019-01-08T23:04:18.740Z,1.60
2019-01-08T23:06:48.363Z,1.70
2019-01-08T23:09:18.014Z,1.70
2019-01-08T23:11:47.792Z,1.70
2019-01-08T23:14:17.992Z,1.60
2019-01-08T23:16:47.701Z,1.70
2019-01-08T23:19:17.348Z,1.70
2019-01-08T23:21:47.103Z,1.70
2019-01-08T23:24:16.722Z,1.70
2019-01-08T23:26:46.412Z,1.70
2019-01-08T23:29:16.048Z,1.70
2019-01-08T23:31:45.698Z,1.60
2019-01-08T23:34:15.341Z,1.50
2019-01-08T23:36:45.083Z,1.60
2019-01-08T23:39:14.783Z,1.60
2019-01-08T23:41:44.556Z,1.60
2019-01-08T23:44:14.306Z,1.60
2019-01-08T23:46:44.062Z,1.60
2019-01-08T23:49:13.742Z,1.60
2019-01-08T23:51:43.568Z,1.60
2019-01-08T23:54:14.119Z,1.60
2019-01-08T23:56:45.374Z,1.60
2019-01-08T23:59:15.106Z,1.60
